sensor_id;sensor_type;location;lat;lon;timestamp;temperature;humidity
11656;DHT22;5884;43.618;1.438;2023-02-15T05:45:45;5.10;99.90
11656;DHT22;5884;43.618;1.438;2023-02-15T05:48:13;5.10;99.90
11656;DHT22;5884;43.618;1.438;2023-02-15T05:50:40;5.10;99.90
11656;DHT22;5884;43.618;1.438;2023-02-15T05:53:08;5.10;99.90
11656;DHT22;5884;43.618;1.438;2023-02-15T05:55:37;5.00;99.90
11656;DHT22;5884;43.618;1.438;2023-02-15T05:58:05;5.00;99.90
11656;DHT22;5884;43.618;1.438;2023-02-15T06:00:33;5.00;99.90
11656;DHT22;5884;43.618;1.438;2023-02-15T06:03:02;5.00;99.90
11656;DHT22;5884;43.618;1.438;2023-02-15T06:05:29;5.00;99.90
11656;DHT22;5884;43.618;1.438;2023-02-15T06:07:56;4.90;99.90
11656;DHT22;5884;43.618;1.438;2023-02-15T06:10:23;4.90;99.90
11656;DHT22;5884;43.618;1.438;2023-02-15T06:12:51;5.00;99.90
11656;DHT22;5884;43.618;1.438;2023-02-15T06:15:18;4.90;99.90
11656;DHT22;5884;43.618;1.438;2023-02-15T06:17:45;4.90;99.90
11656;DHT22;5884;43.618;1.438;2023-02-15T06:20:14;4.90;99.90
11656;DHT22;5884;43.618;1.438;2023-02-15T06:22:41;4.90;99.90
11656;DHT22;5884;43.618;1.438;2023-02-15T06:25:08;4.90;99.90
11656;DHT22;5884;43.618;1.438;2023-02-15T06:27:37;4.80;99.90
11656;DHT22;5884;43.618;1.438;2023-02-15T06:30:05;4.90;99.90
11656;DHT22;5884;43.618;1.438;2023-02-15T06:32:33;4.90;99.90
11656;DHT22;5884;43.618;1.438;2023-02-15T06:35:00;5.00;99.90
11656;DHT22;5884;43.618;1.438;2023-02-15T06:37:29;5.10;99.90
11656;DHT22;5884;43.618;1.438;2023-02-15T06:39:56;5.40;99.90
11656;DHT22;5884;43.618;1.438;2023-02-15T06:42:24;5.90;99.90
11656;DHT22;5884;43.618;1.438;2023-02-15T06:44:51;6.50;99.90
11656;DHT22;5884;43.618;1.438;2023-02-15T06:47:18;6.90;99.90
11656;DHT22;5884;43.618;1.438;2023-02-15T06:49:45;7.20;99.90
11656;DHT22;5884;43.618;1.438;2023-02-15T06:52:13;7.20;99.90
11656;DHT22;5884;43.618;1.438;2023-02-15T06:54:41;7.30;99.90
11656;DHT22;5884;43.618;1.438;2023-02-15T06:57:08;7.40;99.90
11656;DHT22;5884;43.618;1.438;2023-02-15T06:59:36;7.40;99.90
11656;DHT22;5884;43.618;1.438;2023-02-15T07:02:03;7.60;99.90
11656;DHT22;5884;43.618;1.438;2023-02-15T07:04:30;7.70;99.90
11656;DHT22;5884;43.618;1.438;2023-02-15T07:06:57;7.70;99.90
11656;DHT22;5884;43.618;1.438;2023-02-15T07:09:25;7.80;99.90
11656;DHT22;5884;43.618;1.438;2023-02-15T07:11:53;7.80;99.90
11656;DHT22;5884;43.618;1.438;2023-02-15T07:14:38;7.80;99.90
11656;DHT22;5884;43.618;1.438;2023-02-15T07:17:06;7.90;99.90
11656;DHT22;5884;43.618;1.438;2023-02-15T07:19:33;7.90;99.90
11656;DHT22;5884;43.618;1.438;2023-02-15T07:22:00;7.90;99.90
11656;DHT22;5884;43.618;1.438;2023-02-15T07:24:29;8.00;99.90
11656;DHT22;5884;43.618;1.438;2023-02-15T07:26:57;8.10;99.90
11656;DHT22;5884;43.618;1.438;2023-02-15T07:29:25;8.30;99.90
11656;DHT22;5884;43.618;1.438;2023-02-15T07:31:52;8.30;99.90
11656;DHT22;5884;43.618;1.438;2023-02-15T07:34:19;8.30;99.90
11656;DHT22;5884;43.618;1.438;2023-02-15T07:36:47;8.40;99.90
11656;DHT22;5884;43.618;1.438;2023-02-15T07:39:14;8.50;99.90
11656;DHT22;5884;43.618;1.438;2023-02-15T07:41:41;8.50;99.90
11656;DHT22;5884;43.618;1.438;2023-02-15T07:44:13;8.60;99.90
11656;DHT22;5884;43.618;1.438;2023-02-15T07:46:41;8.60;99.90
11656;DHT22;5884;43.618;1.438;2023-02-15T07:49:08;8.70;99.90
11656;DHT22;5884;43.618;1.438;2023-02-15T07:51:35;8.70;99.90
11656;DHT22;5884;43.618;1.438;2023-02-15T07:54:03;8.80;99.90
11656;DHT22;5884;43.618;1.438;2023-02-15T07:56:30;8.80;99.90
11656;DHT22;5884;43.618;1.438;2023-02-15T07:58:58;8.80;99.90
11656;DHT22;5884;43.618;1.438;2023-02-15T08:01:32;8.90;99.90
11656;DHT22;5884;43.618;1.438;2023-02-15T08:04:01;8.90;99.90
11656;DHT22;5884;43.618;1.438;2023-02-15T08:06:32;8.90;99.90
11656;DHT22;5884;43.618;1.438;2023-02-15T08:09:00;8.90;99.90
11656;DHT22;5884;43.618;1.438;2023-02-15T08:11:29;9.00;99.90
11656;DHT22;5884;43.618;1.438;2023-02-15T08:14:01;9.00;99.90
11656;DHT22;5884;43.618;1.438;2023-02-15T08:16:33;9.00;99.90
11656;DHT22;5884;43.618;1.438;2023-02-15T08:19:04;9.00;99.90
11656;DHT22;5884;43.618;1.438;2023-02-15T08:21:33;9.10;99.90
11656;DHT22;5884;43.618;1.438;2023-02-15T08:24:02;9.10;99.90
11656;DHT22;5884;43.618;1.438;2023-02-15T08:26:30;9.20;99.90
11656;DHT22;5884;43.618;1.438;2023-02-15T08:28:59;9.30;99.90
11656;DHT22;5884;43.618;1.438;2023-02-15T08:31:27;9.30;99.90
11656;DHT22;5884;43.618;1.438;2023-02-15T08:33:56;9.40;99.90
11656;DHT22;5884;43.618;1.438;2023-02-15T08:36:25;9.40;99.90
11656;DHT22;5884;43.618;1.438;2023-02-15T08:38:54;9.40;99.90
11656;DHT22;5884;43.618;1.438;2023-02-15T08:41:25;9.50;99.90
11656;DHT22;5884;43.618;1.438;2023-02-15T08:43:56;9.60;99.90
11656;DHT22;5884;43.618;1.438;2023-02-15T08:46:26;9.60;99.90
11656;DHT22;5884;43.618;1.438;2023-02-15T08:48:56;9.70;99.90
11656;DHT22;5884;43.618;1.438;2023-02-15T08:51:25;9.70;99.90
11656;DHT22;5884;43.618;1.438;2023-02-15T08:53:55;9.80;99.90
11656;DHT22;5884;43.618;1.438;2023-02-15T08:56:25;9.90;99.90
11656;DHT22;5884;43.618;1.438;2023-02-15T08:58:54;9.90;99.90
11656;DHT22;5884;43.618;1.438;2023-02-15T09:01:22;10.00;99.90
11656;DHT22;5884;43.618;1.438;2023-02-15T09:03:54;10.00;99.90
11656;DHT22;5884;43.618;1.438;2023-02-15T09:06:25;10.10;99.90
11656;DHT22;5884;43.618;1.438;2023-02-15T09:08:53;10.20;99.90
11656;DHT22;5884;43.618;1.438;2023-02-15T09:11:22;10.20;99.90
11656;DHT22;5884;43.618;1.438;2023-02-15T09:13:53;10.30;99.90
11656;DHT22;5884;43.618;1.438;2023-02-15T09:16:22;10.30;99.90
11656;DHT22;5884;43.618;1.438;2023-02-15T09:18:51;10.40;99.90
11656;DHT22;5884;43.618;1.438;2023-02-15T09:21:22;10.40;99.90
11656;DHT22;5884;43.618;1.438;2023-02-15T09:23:52;10.40;99.90
11656;DHT22;5884;43.618;1.438;2023-02-15T09:26:24;10.40;99.90
11656;DHT22;5884;43.618;1.438;2023-02-15T09:28:52;10.40;99.90
11656;DHT22;5884;43.618;1.438;2023-02-15T09:31:23;10.50;99.90
11656;DHT22;5884;43.618;1.438;2023-02-15T09:33:52;10.60;99.90
11656;DHT22;5884;43.618;1.438;2023-02-15T09:36:23;10.60;99.90
11656;DHT22;5884;43.618;1.438;2023-02-15T09:38:55;10.70;99.90
11656;DHT22;5884;43.618;1.438;2023-02-15T09:41:35;10.90;99.90
11656;DHT22;5884;43.618;1.438;2023-02-15T09:44:27;11.00;99.90
11656;DHT22;5884;43.618;1.438;2023-02-15T09:47:20;11.00;99.90
11656;DHT22;5884;43.618;1.438;2023-02-15T09:50:00;11.10;99.90
11656;DHT22;5884;43.618;1.438;2023-02-15T09:52:49;11.20;99.90
11656;DHT22;5884;43.618;1.438;2023-02-15T09:55:42;11.20;99.90
11656;DHT22;5884;43.618;1.438;2023-02-15T09:58:21;11.20;99.90
11656;DHT22;5884;43.618;1.438;2023-02-15T10:00:58;11.30;99.90
11656;DHT22;5884;43.618;1.438;2023-02-15T10:03:41;11.40;99.90
11656;DHT22;5884;43.618;1.438;2023-02-15T10:06:30;11.40;99.90
11656;DHT22;5884;43.618;1.438;2023-02-15T10:12:39;11.30;99.90
11656;DHT22;5884;43.618;1.438;2023-02-15T10:15:35;11.30;99.90
11656;DHT22;5884;43.618;1.438;2023-02-15T10:18:25;11.50;99.90
11656;DHT22;5884;43.618;1.438;2023-02-15T10:21:14;11.60;99.90
11656;DHT22;5884;43.618;1.438;2023-02-15T10:24:08;11.80;99.90
11656;DHT22;5884;43.618;1.438;2023-02-15T10:26:46;11.70;99.90
11656;DHT22;5884;43.618;1.438;2023-02-15T10:29:22;11.90;99.90
11656;DHT22;5884;43.618;1.438;2023-02-15T10:32:02;12.00;99.90
11656;DHT22;5884;43.618;1.438;2023-02-15T10:34:38;12.20;99.90
11656;DHT22;5884;43.618;1.438;2023-02-15T10:37:28;12.20;99.90
11656;DHT22;5884;43.618;1.438;2023-02-15T10:40:10;12.30;99.90
11656;DHT22;5884;43.618;1.438;2023-02-15T10:42:57;12.40;99.90
11656;DHT22;5884;43.618;1.438;2023-02-15T10:45:41;12.50;99.90
11656;DHT22;5884;43.618;1.438;2023-02-15T10:48:34;12.50;99.90
11656;DHT22;5884;43.618;1.438;2023-02-15T10:51:18;12.50;99.90
11656;DHT22;5884;43.618;1.438;2023-02-15T10:54:02;12.60;99.90
11656;DHT22;5884;43.618;1.438;2023-02-15T10:56:38;12.60;99.90
11656;DHT22;5884;43.618;1.438;2023-02-15T10:59:23;12.60;99.90
11656;DHT22;5884;43.618;1.438;2023-02-15T11:02:12;12.60;99.90
11656;DHT22;5884;43.618;1.438;2023-02-15T11:04:53;12.70;99.90
11656;DHT22;5884;43.618;1.438;2023-02-15T11:07:26;12.70;99.90
11656;DHT22;5884;43.618;1.438;2023-02-15T11:10:12;12.70;99.90
11656;DHT22;5884;43.618;1.438;2023-02-15T11:12:47;12.80;99.90
11656;DHT22;5884;43.618;1.438;2023-02-15T11:15:19;12.80;99.90
11656;DHT22;5884;43.618;1.438;2023-02-15T11:17:56;12.80;99.90
11656;DHT22;5884;43.618;1.438;2023-02-15T11:20:29;12.90;99.90
11656;DHT22;5884;43.618;1.438;2023-02-15T11:23:01;13.10;99.90
11656;DHT22;5884;43.618;1.438;2023-02-15T11:25:30;13.20;99.90
11656;DHT22;5884;43.618;1.438;2023-02-15T11:28:05;13.30;99.90
11656;DHT22;5884;43.618;1.438;2023-02-15T11:30:42;13.40;99.90
11656;DHT22;5884;43.618;1.438;2023-02-15T11:33:16;13.30;99.90
11656;DHT22;5884;43.618;1.438;2023-02-15T11:35:50;13.20;99.90
11656;DHT22;5884;43.618;1.438;2023-02-15T11:38:22;13.20;99.90
11656;DHT22;5884;43.618;1.438;2023-02-15T11:40:54;13.30;99.90
11656;DHT22;5884;43.618;1.438;2023-02-15T11:43:30;13.30;99.90
11656;DHT22;5884;43.618;1.438;2023-02-15T11:46:01;13.30;99.90
11656;DHT22;5884;43.618;1.438;2023-02-15T11:48:29;13.40;99.90
11656;DHT22;5884;43.618;1.438;2023-02-15T11:50:58;13.50;99.90
11656;DHT22;5884;43.618;1.438;2023-02-15T11:53:30;13.60;99.90
11656;DHT22;5884;43.618;1.438;2023-02-15T11:56:00;13.50;99.90
11656;DHT22;5884;43.618;1.438;2023-02-15T11:58:35;13.40;99.90
11656;DHT22;5884;43.618;1.438;2023-02-15T12:01:11;13.30;99.90
11656;DHT22;5884;43.618;1.438;2023-02-15T12:03:45;13.20;99.90
11656;DHT22;5884;43.618;1.438;2023-02-15T12:06:21;13.10;99.90
11656;DHT22;5884;43.618;1.438;2023-02-15T12:09:02;13.20;99.90
11656;DHT22;5884;43.618;1.438;2023-02-15T12:11:35;13.30;99.90
11656;DHT22;5884;43.618;1.438;2023-02-15T12:14:08;13.30;99.90
11656;DHT22;5884;43.618;1.438;2023-02-15T12:16:42;13.40;99.90
11656;DHT22;5884;43.618;1.438;2023-02-15T12:19:29;13.60;99.90
11656;DHT22;5884;43.618;1.438;2023-02-15T12:22:01;13.80;99.90
11656;DHT22;5884;43.618;1.438;2023-02-15T12:24:31;13.90;99.90
11656;DHT22;5884;43.618;1.438;2023-02-15T12:27:02;13.80;99.90
11656;DHT22;5884;43.618;1.438;2023-02-15T12:29:35;13.80;99.90
11656;DHT22;5884;43.618;1.438;2023-02-15T12:32:10;13.90;99.90
11656;DHT22;5884;43.618;1.438;2023-02-15T12:34:43;13.90;99.90
11656;DHT22;5884;43.618;1.438;2023-02-15T12:37:16;13.90;99.90
11656;DHT22;5884;43.618;1.438;2023-02-15T12:39:53;14.00;99.90
11656;DHT22;5884;43.618;1.438;2023-02-15T12:42:23;14.00;99.90
11656;DHT22;5884;43.618;1.438;2023-02-15T12:44:59;14.00;99.90
11656;DHT22;5884;43.618;1.438;2023-02-15T12:47:27;13.90;99.90
11656;DHT22;5884;43.618;1.438;2023-02-15T12:50:08;13.90;99.90
11656;DHT22;5884;43.618;1.438;2023-02-15T12:52:43;13.90;99.90
11656;DHT22;5884;43.618;1.438;2023-02-15T12:55:20;13.90;99.90
11656;DHT22;5884;43.618;1.438;2023-02-15T12:57:49;14.00;99.90
11656;DHT22;5884;43.618;1.438;2023-02-15T13:00:33;14.00;99.90
11656;DHT22;5884;43.618;1.438;2023-02-15T13:03:01;14.00;99.90
11656;DHT22;5884;43.618;1.438;2023-02-15T13:05:32;14.00;99.90
11656;DHT22;5884;43.618;1.438;2023-02-15T13:08:04;14.00;99.90
11656;DHT22;5884;43.618;1.438;2023-02-15T13:10:39;14.20;99.90
11656;DHT22;5884;43.618;1.438;2023-02-15T13:13:10;14.10;99.90
11656;DHT22;5884;43.618;1.438;2023-02-15T13:15:46;14.30;99.90
11656;DHT22;5884;43.618;1.438;2023-02-15T13:18:19;14.30;99.90
11656;DHT22;5884;43.618;1.438;2023-02-15T13:20:50;14.30;99.90
11656;DHT22;5884;43.618;1.438;2023-02-15T13:23:25;14.30;99.90
11656;DHT22;5884;43.618;1.438;2023-02-15T13:25:56;14.20;99.90
11656;DHT22;5884;43.618;1.438;2023-02-15T13:28:32;14.20;99.90
11656;DHT22;5884;43.618;1.438;2023-02-15T13:31:12;14.20;99.90
11656;DHT22;5884;43.618;1.438;2023-02-15T13:33:44;14.00;99.90
11656;DHT22;5884;43.618;1.438;2023-02-15T13:36:18;14.00;99.90
11656;DHT22;5884;43.618;1.438;2023-02-15T13:38:58;14.00;99.90
11656;DHT22;5884;43.618;1.438;2023-02-15T13:41:39;14.00;99.90
11656;DHT22;5884;43.618;1.438;2023-02-15T13:44:20;14.10;99.90
11656;DHT22;5884;43.618;1.438;2023-02-15T13:47:03;14.20;99.90
11656;DHT22;5884;43.618;1.438;2023-02-15T13:49:46;14.30;99.90
11656;DHT22;5884;43.618;1.438;2023-02-15T13:52:20;14.30;99.90
11656;DHT22;5884;43.618;1.438;2023-02-15T13:55:18;14.30;99.90
11656;DHT22;5884;43.618;1.438;2023-02-15T13:58:14;14.50;99.90
11656;DHT22;5884;43.618;1.438;2023-02-15T14:01:05;14.50;99.90
11656;DHT22;5884;43.618;1.438;2023-02-15T14:04:05;14.50;99.90
11656;DHT22;5884;43.618;1.438;2023-02-15T14:06:57;14.50;99.90
11656;DHT22;5884;43.618;1.438;2023-02-15T14:09:43;14.70;99.90
11656;DHT22;5884;43.618;1.438;2023-02-15T14:12:35;14.70;99.90
11656;DHT22;5884;43.618;1.438;2023-02-15T14:15:18;14.60;99.90
11656;DHT22;5884;43.618;1.438;2023-02-15T14:18:00;14.50;99.90
11656;DHT22;5884;43.618;1.438;2023-02-15T14:20:47;14.50;99.90
11656;DHT22;5884;43.618;1.438;2023-02-15T14:26:26;14.60;99.90
11656;DHT22;5884;43.618;1.438;2023-02-15T14:29:12;14.60;99.90
11656;DHT22;5884;43.618;1.438;2023-02-15T14:31:47;14.70;99.90
11656;DHT22;5884;43.618;1.438;2023-02-15T14:34:21;14.70;99.90
11656;DHT22;5884;43.618;1.438;2023-02-15T14:36:51;14.80;99.90
11656;DHT22;5884;43.618;1.438;2023-02-15T14:39:29;14.80;99.90
11656;DHT22;5884;43.618;1.438;2023-02-15T14:42:30;14.80;99.90
11656;DHT22;5884;43.618;1.438;2023-02-15T14:45:04;14.90;99.90
11656;DHT22;5884;43.618;1.438;2023-02-15T14:47:43;14.90;99.90
11656;DHT22;5884;43.618;1.438;2023-02-15T14:50:40;14.90;99.90
11656;DHT22;5884;43.618;1.438;2023-02-15T14:53:22;15.00;99.90
11656;DHT22;5884;43.618;1.438;2023-02-15T14:56:31;15.00;99.90
11656;DHT22;5884;43.618;1.438;2023-02-15T14:59:11;15.00;99.90
11656;DHT22;5884;43.618;1.438;2023-02-15T15:01:40;14.90;99.90
11656;DHT22;5884;43.618;1.438;2023-02-15T15:04:10;14.90;99.90
11656;DHT22;5884;43.618;1.438;2023-02-15T15:06:42;14.80;99.90
11656;DHT22;5884;43.618;1.438;2023-02-15T15:09:13;14.80;99.90
11656;DHT22;5884;43.618;1.438;2023-02-15T15:11:48;14.80;99.90
11656;DHT22;5884;43.618;1.438;2023-02-15T15:14:38;14.80;99.90
11656;DHT22;5884;43.618;1.438;2023-02-15T15:17:10;14.80;99.90
11656;DHT22;5884;43.618;1.438;2023-02-15T15:20:03;14.90;99.90
11656;DHT22;5884;43.618;1.438;2023-02-15T15:22:40;14.80;99.90
11656;DHT22;5884;43.618;1.438;2023-02-15T15:25:40;14.80;99.90
11656;DHT22;5884;43.618;1.438;2023-02-15T15:28:09;14.90;99.90
11656;DHT22;5884;43.618;1.438;2023-02-15T15:30:49;14.70;99.90
11656;DHT22;5884;43.618;1.438;2023-02-15T15:42:59;14.60;99.90
11656;DHT22;5884;43.618;1.438;2023-02-15T15:48:34;14.50;99.90
11656;DHT22;5884;43.618;1.438;2023-02-15T15:51:09;14.40;99.90
11656;DHT22;5884;43.618;1.438;2023-02-15T15:53:40;14.40;99.90
11656;DHT22;5884;43.618;1.438;2023-02-15T15:56:15;14.30;99.90
11656;DHT22;5884;43.618;1.438;2023-02-15T15:58:47;14.20;99.90
11656;DHT22;5884;43.618;1.438;2023-02-15T16:01:25;14.20;99.90
11656;DHT22;5884;43.618;1.438;2023-02-15T16:03:56;14.10;99.90
11656;DHT22;5884;43.618;1.438;2023-02-15T16:06:29;13.90;99.90
11656;DHT22;5884;43.618;1.438;2023-02-15T16:09:10;13.90;99.90
11656;DHT22;5884;43.618;1.438;2023-02-15T16:11:40;13.90;99.90
11656;DHT22;5884;43.618;1.438;2023-02-15T16:14:16;13.80;99.90
11656;DHT22;5884;43.618;1.438;2023-02-15T16:16:49;13.80;99.90
11656;DHT22;5884;43.618;1.438;2023-02-15T16:19:21;13.80;99.90
11656;DHT22;5884;43.618;1.438;2023-02-15T16:21:50;13.80;99.90
11656;DHT22;5884;43.618;1.438;2023-02-15T16:24:26;13.70;99.90
11656;DHT22;5884;43.618;1.438;2023-02-15T16:27:31;13.70;99.90
11656;DHT22;5884;43.618;1.438;2023-02-15T16:30:22;13.60;99.90
11656;DHT22;5884;43.618;1.438;2023-02-15T16:32:53;13.50;99.90
11656;DHT22;5884;43.618;1.438;2023-02-15T16:35:22;13.50;99.90
11656;DHT22;5884;43.618;1.438;2023-02-15T16:37:50;13.40;99.90
11656;DHT22;5884;43.618;1.438;2023-02-15T16:43:22;13.30;99.90
11656;DHT22;5884;43.618;1.438;2023-02-15T16:45:55;13.30;99.90
11656;DHT22;5884;43.618;1.438;2023-02-15T16:48:26;13.10;99.90
11656;DHT22;5884;43.618;1.438;2023-02-15T16:50:56;13.00;99.90
11656;DHT22;5884;43.618;1.438;2023-02-15T16:53:26;13.00;99.90
11656;DHT22;5884;43.618;1.438;2023-02-15T16:55:55;12.90;99.90
11656;DHT22;5884;43.618;1.438;2023-02-15T16:58:30;12.90;99.90
11656;DHT22;5884;43.618;1.438;2023-02-15T17:01:00;12.70;99.90
11656;DHT22;5884;43.618;1.438;2023-02-15T17:03:28;12.60;99.90
11656;DHT22;5884;43.618;1.438;2023-02-15T17:05:57;12.60;99.90
11656;DHT22;5884;43.618;1.438;2023-02-15T17:08:28;12.50;99.90
11656;DHT22;5884;43.618;1.438;2023-02-15T17:11:15;12.40;99.90
11656;DHT22;5884;43.618;1.438;2023-02-15T17:14:12;12.50;99.90
11656;DHT22;5884;43.618;1.438;2023-02-15T17:16:46;12.40;99.90
11656;DHT22;5884;43.618;1.438;2023-02-15T17:19:21;12.30;99.90
11656;DHT22;5884;43.618;1.438;2023-02-15T17:21:52;12.20;99.90
11656;DHT22;5884;43.618;1.438;2023-02-15T17:24:34;12.10;99.90
11656;DHT22;5884;43.618;1.438;2023-02-15T17:27:06;12.10;99.90
11656;DHT22;5884;43.618;1.438;2023-02-15T17:29:41;12.10;99.90
11656;DHT22;5884;43.618;1.438;2023-02-15T17:32:17;11.90;99.90
11656;DHT22;5884;43.618;1.438;2023-02-15T17:34:58;11.80;99.90
11656;DHT22;5884;43.618;1.438;2023-02-15T17:37:31;11.70;99.90
11656;DHT22;5884;43.618;1.438;2023-02-15T17:40:19;11.60;99.90
11656;DHT22;5884;43.618;1.438;2023-02-15T17:42:48;11.70;99.90
11656;DHT22;5884;43.618;1.438;2023-02-15T17:45:17;11.60;99.90
11656;DHT22;5884;43.618;1.438;2023-02-15T17:47:46;11.50;99.90
11656;DHT22;5884;43.618;1.438;2023-02-15T17:50:19;11.50;99.90
11656;DHT22;5884;43.618;1.438;2023-02-15T17:52:47;11.50;99.90
11656;DHT22;5884;43.618;1.438;2023-02-15T17:55:17;11.40;99.90
11656;DHT22;5884;43.618;1.438;2023-02-15T17:58:02;11.40;99.90
11656;DHT22;5884;43.618;1.438;2023-02-15T18:00:35;11.30;99.90
11656;DHT22;5884;43.618;1.438;2023-02-15T18:03:21;11.20;99.90
11656;DHT22;5884;43.618;1.438;2023-02-15T18:06:06;11.20;99.90
11656;DHT22;5884;43.618;1.438;2023-02-15T18:08:50;11.20;99.90
11656;DHT22;5884;43.618;1.438;2023-02-15T18:11:35;11.10;99.90
11656;DHT22;5884;43.618;1.438;2023-02-15T18:14:04;11.00;99.90
11656;DHT22;5884;43.618;1.438;2023-02-15T18:16:35;11.00;99.90
11656;DHT22;5884;43.618;1.438;2023-02-15T18:19:06;11.00;99.90
11656;DHT22;5884;43.618;1.438;2023-02-15T18:21:39;11.00;99.90
11656;DHT22;5884;43.618;1.438;2023-02-15T18:24:14;11.00;99.90
11656;DHT22;5884;43.618;1.438;2023-02-15T18:26:43;10.90;99.90
11656;DHT22;5884;43.618;1.438;2023-02-15T18:29:11;10.80;99.90
11656;DHT22;5884;43.618;1.438;2023-02-15T18:31:40;10.80;99.90
11656;DHT22;5884;43.618;1.438;2023-02-15T18:34:19;10.80;99.90
11656;DHT22;5884;43.618;1.438;2023-02-15T18:36:49;10.70;99.90
11656;DHT22;5884;43.618;1.438;2023-02-15T18:39:33;10.70;99.90
11656;DHT22;5884;43.618;1.438;2023-02-15T18:42:05;10.60;99.90
11656;DHT22;5884;43.618;1.438;2023-02-15T18:44:36;10.60;99.90
11656;DHT22;5884;43.618;1.438;2023-02-15T18:47:05;10.60;99.90
11656;DHT22;5884;43.618;1.438;2023-02-15T18:49:33;10.50;99.90
11656;DHT22;5884;43.618;1.438;2023-02-15T18:52:01;10.40;99.90
11656;DHT22;5884;43.618;1.438;2023-02-15T18:54:28;10.40;99.90
11656;DHT22;5884;43.618;1.438;2023-02-15T18:56:57;10.30;99.90
11656;DHT22;5884;43.618;1.438;2023-02-15T18:59:27;10.30;99.90
11656;DHT22;5884;43.618;1.438;2023-02-15T19:01:56;10.30;99.90
11656;DHT22;5884;43.618;1.438;2023-02-15T19:04:26;10.20;99.90
11656;DHT22;5884;43.618;1.438;2023-02-15T19:06:53;10.20;99.90
11656;DHT22;5884;43.618;1.438;2023-02-15T19:09:22;10.20;99.90
11656;DHT22;5884;43.618;1.438;2023-02-15T19:11:51;10.20;99.90
11656;DHT22;5884;43.618;1.438;2023-02-15T19:14:25;10.10;99.90
11656;DHT22;5884;43.618;1.438;2023-02-15T19:16:53;10.10;99.90
11656;DHT22;5884;43.618;1.438;2023-02-15T19:19:21;10.10;99.90
11656;DHT22;5884;43.618;1.438;2023-02-15T19:21:51;10.10;99.90
11656;DHT22;5884;43.618;1.438;2023-02-15T19:24:20;10.00;99.90
11656;DHT22;5884;43.618;1.438;2023-02-15T19:26:49;9.90;99.90
11656;DHT22;5884;43.618;1.438;2023-02-15T19:29:23;9.90;99.90
11656;DHT22;5884;43.618;1.438;2023-02-15T19:31:52;9.90;99.90
11656;DHT22;5884;43.618;1.438;2023-02-15T19:34:19;9.90;99.90
11656;DHT22;5884;43.618;1.438;2023-02-15T19:36:48;9.80;99.90
11656;DHT22;5884;43.618;1.438;2023-02-15T19:39:23;9.80;99.90
11656;DHT22;5884;43.618;1.438;2023-02-15T19:41:52;9.80;99.90
11656;DHT22;5884;43.618;1.438;2023-02-15T19:44:20;9.70;99.90
11656;DHT22;5884;43.618;1.438;2023-02-15T19:46:47;9.70;99.90
11656;DHT22;5884;43.618;1.438;2023-02-15T19:49:14;9.60;99.90
11656;DHT22;5884;43.618;1.438;2023-02-15T19:51:42;9.60;99.90
11656;DHT22;5884;43.618;1.438;2023-02-15T19:54:18;9.60;99.90
11656;DHT22;5884;43.618;1.438;2023-02-15T19:56:50;9.50;99.90
11656;DHT22;5884;43.618;1.438;2023-02-15T19:59:22;9.50;99.90
11656;DHT22;5884;43.618;1.438;2023-02-15T20:01:50;9.50;99.90
11656;DHT22;5884;43.618;1.438;2023-02-15T20:04:18;9.50;99.90
11656;DHT22;5884;43.618;1.438;2023-02-15T20:06:47;9.50;99.90
11656;DHT22;5884;43.618;1.438;2023-02-15T20:09:24;9.40;99.90
11656;DHT22;5884;43.618;1.438;2023-02-15T20:11:54;9.40;99.90
11656;DHT22;5884;43.618;1.438;2023-02-15T20:14:22;9.40;99.90
11656;DHT22;5884;43.618;1.438;2023-02-15T20:16:50;9.40;99.90
11656;DHT22;5884;43.618;1.438;2023-02-15T20:19:17;9.30;99.90
11656;DHT22;5884;43.618;1.438;2023-02-15T20:21:46;9.30;99.90
11656;DHT22;5884;43.618;1.438;2023-02-15T20:24:21;9.20;99.90
11656;DHT22;5884;43.618;1.438;2023-02-15T20:26:50;9.20;99.90
11656;DHT22;5884;43.618;1.438;2023-02-15T20:29:18;9.20;99.90
11656;DHT22;5884;43.618;1.438;2023-02-15T20:31:45;9.10;99.90
11656;DHT22;5884;43.618;1.438;2023-02-15T20:34:12;9.10;99.90
11656;DHT22;5884;43.618;1.438;2023-02-15T20:36:40;9.00;99.90
11656;DHT22;5884;43.618;1.438;2023-02-15T20:39:14;9.00;99.90
11656;DHT22;5884;43.618;1.438;2023-02-15T20:41:46;9.00;99.90
11656;DHT22;5884;43.618;1.438;2023-02-15T20:44:21;9.00;99.90
11656;DHT22;5884;43.618;1.438;2023-02-15T20:46:51;9.00;99.90
11656;DHT22;5884;43.618;1.438;2023-02-15T20:49:20;9.00;99.90
11656;DHT22;5884;43.618;1.438;2023-02-15T20:51:49;8.90;99.90
11656;DHT22;5884;43.618;1.438;2023-02-15T20:54:18;8.90;99.90
11656;DHT22;5884;43.618;1.438;2023-02-15T20:56:48;8.90;99.90
11656;DHT22;5884;43.618;1.438;2023-02-15T20:59:21;8.80;99.90
11656;DHT22;5884;43.618;1.438;2023-02-15T21:01:51;8.80;99.90
11656;DHT22;5884;43.618;1.438;2023-02-15T21:04:24;8.80;99.90
11656;DHT22;5884;43.618;1.438;2023-02-15T21:06:54;8.80;99.90
11656;DHT22;5884;43.618;1.438;2023-02-15T21:09:22;8.80;99.90
11656;DHT22;5884;43.618;1.438;2023-02-15T21:11:53;8.70;99.90
11656;DHT22;5884;43.618;1.438;2023-02-15T21:14:22;8.70;99.90
11656;DHT22;5884;43.618;1.438;2023-02-15T21:16:52;8.70;99.90
11656;DHT22;5884;43.618;1.438;2023-02-15T21:19:21;8.70;99.90
11656;DHT22;5884;43.618;1.438;2023-02-15T21:21:51;8.60;99.90
11656;DHT22;5884;43.618;1.438;2023-02-15T21:24:21;8.60;99.90
11656;DHT22;5884;43.618;1.438;2023-02-15T21:26:52;8.60;99.90
11656;DHT22;5884;43.618;1.438;2023-02-15T21:29:23;8.50;99.90
11656;DHT22;5884;43.618;1.438;2023-02-15T21:31:51;8.50;99.90
11656;DHT22;5884;43.618;1.438;2023-02-15T21:34:18;8.50;99.90
11656;DHT22;5884;43.618;1.438;2023-02-15T21:36:47;8.50;99.90
11656;DHT22;5884;43.618;1.438;2023-02-15T21:39:18;8.50;99.90
11656;DHT22;5884;43.618;1.438;2023-02-15T21:41:49;8.50;99.90
11656;DHT22;5884;43.618;1.438;2023-02-15T21:44:38;8.40;99.90
11656;DHT22;5884;43.618;1.438;2023-02-15T21:47:26;8.40;99.90
11656;DHT22;5884;43.618;1.438;2023-02-15T21:50:14;8.40;99.90
11656;DHT22;5884;43.618;1.438;2023-02-15T21:52:59;8.40;99.90
11656;DHT22;5884;43.618;1.438;2023-02-15T21:55:29;8.30;99.90
11656;DHT22;5884;43.618;1.438;2023-02-15T21:57:59;8.30;99.90
